sensor_id;sensor_type;location;lat;lon;timestamp;P1;durP1;ratioP1;P2;durP2;ratioP2
33268;SDS011;19640;50.944;5.260;2023-11-21T00:00:49;36.60;;;12.55;;
33268;SDS011;19640;50.944;5.260;2023-11-21T00:03:14;25.98;;;12.10;;
33268;SDS011;19640;50.944;5.260;2023-11-21T00:05:40;31.33;;;12.32;;
33268;SDS011;19640;50.944;5.260;2023-11-21T00:08:07;34.92;;;12.88;;
33268;SDS011;19640;50.944;5.260;2023-11-21T00:10:33;29.42;;;11.52;;
33268;SDS011;19640;50.944;5.260;2023-11-21T00:13:00;26.40;;;12.30;;
33268;SDS011;19640;50.944;5.260;2023-11-21T00:15:27;28.88;;;13.25;;
33268;SDS011;19640;50.944;5.260;2023-11-21T00:17:52;24.38;;;13.07;;
33268;SDS011;19640;50.944;5.260;2023-11-21T00:20:18;31.33;;;12.55;;
33268;SDS011;19640;50.944;5.260;2023-11-21T00:22:44;24.15;;;12.30;;
33268;SDS011;19640;50.944;5.260;2023-11-21T00:25:09;33.13;;;10.77;;
33268;SDS011;19640;50.944;5.260;2023-11-21T00:27:36;25.45;;;12.98;;
33268;SDS011;19640;50.944;5.260;2023-11-21T00:30:02;42.00;;;13.25;;
33268;SDS011;19640;50.944;5.260;2023-11-21T00:32:29;30.02;;;13.43;;
33268;SDS011;19640;50.944;5.260;2023-11-21T00:34:55;28.15;;;12.00;;
33268;SDS011;19640;50.944;5.260;2023-11-21T00:37:20;26.33;;;11.93;;
33268;SDS011;19640;50.944;5.260;2023-11-21T00:39:46;28.70;;;13.73;;
33268;SDS011;19640;50.944;5.260;2023-11-21T00:42:12;26.17;;;12.30;;
33268;SDS011;19640;50.944;5.260;2023-11-21T00:44:38;31.05;;;13.40;;
33268;SDS011;19640;50.944;5.260;2023-11-21T00:47:04;29.00;;;13.27;;
33268;SDS011;19640;50.944;5.260;2023-11-21T00:49:30;27.95;;;14.57;;
33268;SDS011;19640;50.944;5.260;2023-11-21T00:51:56;31.27;;;14.43;;
33268;SDS011;19640;50.944;5.260;2023-11-21T00:54:23;32.00;;;14.88;;
33268;SDS011;19640;50.944;5.260;2023-11-21T00:56:48;24.30;;;13.10;;
33268;SDS011;19640;50.944;5.260;2023-11-21T00:59:14;29.88;;;12.38;;
33268;SDS011;19640;50.944;5.260;2023-11-21T01:01:40;35.50;;;13.30;;
33268;SDS011;19640;50.944;5.260;2023-11-21T01:04:06;33.78;;;13.57;;
33268;SDS011;19640;50.944;5.260;2023-11-21T01:06:34;29.45;;;13.73;;
33268;SDS011;19640;50.944;5.260;2023-11-21T01:09:00;35.42;;;13.70;;
33268;SDS011;19640;50.944;5.260;2023-11-21T01:11:26;30.85;;;13.05;;
33268;SDS011;19640;50.944;5.260;2023-11-21T01:13:51;33.22;;;13.48;;
33268;SDS011;19640;50.944;5.260;2023-11-21T01:16:18;28.73;;;13.35;;
33268;SDS011;19640;50.944;5.260;2023-11-21T01:18:43;27.17;;;14.65;;
33268;SDS011;19640;50.944;5.260;2023-11-21T01:21:09;31.80;;;14.18;;
33268;SDS011;19640;50.944;5.260;2023-11-21T01:23:35;26.17;;;12.63;;
33268;SDS011;19640;50.944;5.260;2023-11-21T01:26:01;28.00;;;13.20;;
33268;SDS011;19640;50.944;5.260;2023-11-21T01:28:27;31.77;;;13.98;;
33268;SDS011;19640;50.944;5.260;2023-11-21T01:30:52;39.45;;;14.63;;
33268;SDS011;19640;50.944;5.260;2023-11-21T01:33:22;38.67;;;16.70;;
33268;SDS011;19640;50.944;5.260;2023-11-21T01:35:50;37.00;;;15.65;;
33268;SDS011;19640;50.944;5.260;2023-11-21T01:38:16;34.80;;;14.85;;
33268;SDS011;19640;50.944;5.260;2023-11-21T01:40:42;36.47;;;15.63;;
33268;SDS011;19640;50.944;5.260;2023-11-21T01:43:08;38.78;;;15.23;;
33268;SDS011;19640;50.944;5.260;2023-11-21T01:45:33;35.45;;;15.38;;
33268;SDS011;19640;50.944;5.260;2023-11-21T01:48:00;42.50;;;15.80;;
33268;SDS011;19640;50.944;5.260;2023-11-21T01:50:27;38.10;;;15.68;;
33268;SDS011;19640;50.944;5.260;2023-11-21T01:52:53;42.13;;;16.77;;
33268;SDS011;19640;50.944;5.260;2023-11-21T01:55:19;51.80;;;18.40;;
33268;SDS011;19640;50.944;5.260;2023-11-21T01:57:45;47.50;;;16.27;;
33268;SDS011;19640;50.944;5.260;2023-11-21T02:00:12;34.00;;;15.60;;
33268;SDS011;19640;50.944;5.260;2023-11-21T02:02:45;38.35;;;15.60;;
33268;SDS011;19640;50.944;5.260;2023-11-21T02:05:12;37.25;;;15.10;;
33268;SDS011;19640;50.944;5.260;2023-11-21T02:07:39;32.28;;;14.50;;
33268;SDS011;19640;50.944;5.260;2023-11-21T02:10:06;41.85;;;14.98;;
33268;SDS011;19640;50.944;5.260;2023-11-21T02:12:33;31.90;;;14.27;;
33268;SDS011;19640;50.944;5.260;2023-11-21T02:15:01;39.17;;;15.00;;
33268;SDS011;19640;50.944;5.260;2023-11-21T02:17:39;40.97;;;14.43;;
33268;SDS011;19640;50.944;5.260;2023-11-21T02:20:10;38.92;;;15.35;;
33268;SDS011;19640;50.944;5.260;2023-11-21T02:22:40;29.70;;;14.27;;
33268;SDS011;19640;50.944;5.260;2023-11-21T02:25:07;43.85;;;14.90;;
33268;SDS011;19640;50.944;5.260;2023-11-21T02:27:33;31.98;;;14.68;;
33268;SDS011;19640;50.944;5.260;2023-11-21T02:29:59;44.58;;;16.77;;
33268;SDS011;19640;50.944;5.260;2023-11-21T02:32:26;37.42;;;15.15;;
33268;SDS011;19640;50.944;5.260;2023-11-21T02:34:51;45.30;;;16.13;;
33268;SDS011;19640;50.944;5.260;2023-11-21T02:37:18;41.58;;;16.30;;
33268;SDS011;19640;50.944;5.260;2023-11-21T02:39:45;41.80;;;15.35;;
33268;SDS011;19640;50.944;5.260;2023-11-21T02:42:10;50.33;;;17.35;;
33268;SDS011;19640;50.944;5.260;2023-11-21T02:44:36;51.97;;;18.55;;
33268;SDS011;19640;50.944;5.260;2023-11-21T02:47:02;57.65;;;19.92;;
33268;SDS011;19640;50.944;5.260;2023-11-21T02:49:28;60.20;;;19.23;;
33268;SDS011;19640;50.944;5.260;2023-11-21T02:51:54;71.63;;;21.27;;
33268;SDS011;19640;50.944;5.260;2023-11-21T02:54:20;70.10;;;23.95;;
33268;SDS011;19640;50.944;5.260;2023-11-21T02:56:47;72.22;;;22.80;;
33268;SDS011;19640;50.944;5.260;2023-11-21T02:59:14;65.03;;;21.85;;
33268;SDS011;19640;50.944;5.260;2023-11-21T03:01:40;71.97;;;22.80;;
33268;SDS011;19640;50.944;5.260;2023-11-21T03:04:06;68.25;;;21.92;;
33268;SDS011;19640;50.944;5.260;2023-11-21T03:06:32;62.63;;;22.05;;
33268;SDS011;19640;50.944;5.260;2023-11-21T03:08:58;79.53;;;23.05;;
33268;SDS011;19640;50.944;5.260;2023-11-21T03:11:24;84.35;;;24.70;;
33268;SDS011;19640;50.944;5.260;2023-11-21T03:13:50;84.00;;;24.77;;
33268;SDS011;19640;50.944;5.260;2023-11-21T03:16:16;92.50;;;27.88;;
33268;SDS011;19640;50.944;5.260;2023-11-21T03:18:41;98.55;;;26.45;;
33268;SDS011;19640;50.944;5.260;2023-11-21T03:21:07;90.20;;;25.15;;
33268;SDS011;19640;50.944;5.260;2023-11-21T03:23:34;87.15;;;26.35;;
33268;SDS011;19640;50.944;5.260;2023-11-21T03:26:00;109.82;;;28.60;;
33268;SDS011;19640;50.944;5.260;2023-11-21T03:28:26;125.00;;;26.35;;
33268;SDS011;19640;50.944;5.260;2023-11-21T03:30:53;89.00;;;26.13;;
33268;SDS011;19640;50.944;5.260;2023-11-21T03:33:19;102.05;;;25.70;;
33268;SDS011;19640;50.944;5.260;2023-11-21T03:35:44;99.38;;;25.25;;
33268;SDS011;19640;50.944;5.260;2023-11-21T03:38:11;91.25;;;23.70;;
33268;SDS011;19640;50.944;5.260;2023-11-21T03:40:37;79.68;;;22.45;;
33268;SDS011;19640;50.944;5.260;2023-11-21T03:43:04;99.10;;;24.33;;
33268;SDS011;19640;50.944;5.260;2023-11-21T03:45:31;121.78;;;23.58;;
33268;SDS011;19640;50.944;5.260;2023-11-21T03:47:57;133.93;;;26.88;;
33268;SDS011;19640;50.944;5.260;2023-11-21T03:50:22;150.93;;;27.52;;
33268;SDS011;19640;50.944;5.260;2023-11-21T03:52:48;194.50;;;28.02;;
33268;SDS011;19640;50.944;5.260;2023-11-21T03:55:14;175.30;;;28.13;;
33268;SDS011;19640;50.944;5.260;2023-11-21T03:57:40;196.40;;;28.08;;
33268;SDS011;19640;50.944;5.260;2023-11-21T04:00:06;137.48;;;26.35;;
33268;SDS011;19640;50.944;5.260;2023-11-21T04:02:34;199.82;;;28.60;;
33268;SDS011;19640;50.944;5.260;2023-11-21T04:05:00;153.75;;;25.20;;
33268;SDS011;19640;50.944;5.260;2023-11-21T04:07:25;117.18;;;24.77;;
33268;SDS011;19640;50.944;5.260;2023-11-21T04:09:52;214.70;;;26.40;;
33268;SDS011;19640;50.944;5.260;2023-11-21T04:12:18;156.63;;;24.60;;
33268;SDS011;19640;50.944;5.260;2023-11-21T04:14:44;141.25;;;24.75;;
33268;SDS011;19640;50.944;5.260;2023-11-21T04:17:10;174.60;;;24.13;;
33268;SDS011;19640;50.944;5.260;2023-11-21T04:19:35;173.05;;;23.65;;
33268;SDS011;19640;50.944;5.260;2023-11-21T04:22:01;168.15;;;22.00;;
33268;SDS011;19640;50.944;5.260;2023-11-21T04:24:27;114.03;;;21.98;;
33268;SDS011;19640;50.944;5.260;2023-11-21T04:26:53;124.90;;;21.75;;
33268;SDS011;19640;50.944;5.260;2023-11-21T04:29:18;146.95;;;22.90;;
33268;SDS011;19640;50.944;5.260;2023-11-21T04:31:44;155.38;;;23.13;;
33268;SDS011;19640;50.944;5.260;2023-11-21T04:34:10;187.00;;;25.27;;
33268;SDS011;19640;50.944;5.260;2023-11-21T04:36:36;146.63;;;24.52;;
33268;SDS011;19640;50.944;5.260;2023-11-21T04:39:02;163.73;;;24.88;;
33268;SDS011;19640;50.944;5.260;2023-11-21T04:41:28;152.30;;;22.80;;
33268;SDS011;19640;50.944;5.260;2023-11-21T04:43:53;182.50;;;23.92;;
33268;SDS011;19640;50.944;5.260;2023-11-21T04:46:19;158.93;;;23.10;;
33268;SDS011;19640;50.944;5.260;2023-11-21T04:48:44;191.52;;;24.15;;
33268;SDS011;19640;50.944;5.260;2023-11-21T04:51:10;157.75;;;23.05;;
33268;SDS011;19640;50.944;5.260;2023-11-21T04:53:39;144.75;;;23.98;;
33268;SDS011;19640;50.944;5.260;2023-11-21T04:56:05;147.55;;;22.50;;
33268;SDS011;19640;50.944;5.260;2023-11-21T04:58:31;214.43;;;22.95;;
33268;SDS011;19640;50.944;5.260;2023-11-21T05:00:58;149.25;;;23.08;;
33268;SDS011;19640;50.944;5.260;2023-11-21T05:03:23;264.80;;;24.40;;
33268;SDS011;19640;50.944;5.260;2023-11-21T05:05:49;227.60;;;23.60;;
33268;SDS011;19640;50.944;5.260;2023-11-21T05:08:15;257.92;;;24.35;;
33268;SDS011;19640;50.944;5.260;2023-11-21T05:10:40;274.52;;;24.67;;
33268;SDS011;19640;50.944;5.260;2023-11-21T05:13:06;221.32;;;22.92;;
33268;SDS011;19640;50.944;5.260;2023-11-21T05:15:35;207.70;;;22.15;;
33268;SDS011;19640;50.944;5.260;2023-11-21T05:18:02;161.18;;;21.67;;
33268;SDS011;19640;50.944;5.260;2023-11-21T05:20:28;121.70;;;19.60;;
33268;SDS011;19640;50.944;5.260;2023-11-21T05:22:53;161.55;;;19.73;;
33268;SDS011;19640;50.944;5.260;2023-11-21T05:25:19;90.57;;;20.27;;
33268;SDS011;19640;50.944;5.260;2023-11-21T05:27:45;164.55;;;19.92;;
33268;SDS011;19640;50.944;5.260;2023-11-21T05:30:12;190.45;;;21.38;;
33268;SDS011;19640;50.944;5.260;2023-11-21T05:32:39;183.35;;;20.83;;
33268;SDS011;19640;50.944;5.260;2023-11-21T05:35:09;162.80;;;20.20;;
33268;SDS011;19640;50.944;5.260;2023-11-21T05:37:40;223.35;;;20.45;;
33268;SDS011;19640;50.944;5.260;2023-11-21T05:40:07;210.82;;;20.75;;
33268;SDS011;19640;50.944;5.260;2023-11-21T05:42:33;211.77;;;20.88;;
33268;SDS011;19640;50.944;5.260;2023-11-21T05:45:00;112.32;;;20.25;;
33268;SDS011;19640;50.944;5.260;2023-11-21T05:47:38;180.23;;;21.42;;
33268;SDS011;19640;50.944;5.260;2023-11-21T05:50:08;200.65;;;22.30;;
33268;SDS011;19640;50.944;5.260;2023-11-21T05:52:39;158.02;;;21.85;;
33268;SDS011;19640;50.944;5.260;2023-11-21T05:55:06;165.38;;;20.85;;
33268;SDS011;19640;50.944;5.260;2023-11-21T05:57:33;177.73;;;20.50;;
33268;SDS011;19640;50.944;5.260;2023-11-21T06:00:02;142.57;;;19.70;;
33268;SDS011;19640;50.944;5.260;2023-11-21T06:02:43;199.07;;;22.65;;
33268;SDS011;19640;50.944;5.260;2023-11-21T06:05:10;158.35;;;20.55;;
33268;SDS011;19640;50.944;5.260;2023-11-21T06:07:36;257.35;;;23.67;;
33268;SDS011;19640;50.944;5.260;2023-11-21T06:10:02;146.82;;;19.77;;
33268;SDS011;19640;50.944;5.260;2023-11-21T06:12:31;121.68;;;20.20;;
33268;SDS011;19640;50.944;5.260;2023-11-21T06:15:01;151.75;;;21.55;;
33268;SDS011;19640;50.944;5.260;2023-11-21T06:17:30;176.65;;;20.88;;
33268;SDS011;19640;50.944;5.260;2023-11-21T06:19:56;199.60;;;21.58;;
33268;SDS011;19640;50.944;5.260;2023-11-21T06:22:22;129.02;;;21.42;;
33268;SDS011;19640;50.944;5.260;2023-11-21T06:24:48;124.43;;;20.50;;
33268;SDS011;19640;50.944;5.260;2023-11-21T06:27:13;164.68;;;20.83;;
33268;SDS011;19640;50.944;5.260;2023-11-21T06:29:39;165.40;;;21.75;;
33268;SDS011;19640;50.944;5.260;2023-11-21T06:32:05;136.88;;;21.48;;
33268;SDS011;19640;50.944;5.260;2023-11-21T06:34:31;147.82;;;20.45;;
33268;SDS011;19640;50.944;5.260;2023-11-21T06:36:56;182.70;;;22.38;;
33268;SDS011;19640;50.944;5.260;2023-11-21T06:39:22;152.15;;;20.45;;
33268;SDS011;19640;50.944;5.260;2023-11-21T06:41:51;94.95;;;19.80;;
33268;SDS011;19640;50.944;5.260;2023-11-21T06:44:16;110.85;;;21.27;;
33268;SDS011;19640;50.944;5.260;2023-11-21T06:46:42;230.80;;;22.75;;
33268;SDS011;19640;50.944;5.260;2023-11-21T06:49:08;226.80;;;22.83;;
33268;SDS011;19640;50.944;5.260;2023-11-21T06:51:34;149.85;;;21.55;;
33268;SDS011;19640;50.944;5.260;2023-11-21T06:53:59;107.97;;;20.95;;
33268;SDS011;19640;50.944;5.260;2023-11-21T06:56:25;94.13;;;23.02;;
33268;SDS011;19640;50.944;5.260;2023-11-21T06:58:51;118.03;;;22.00;;
33268;SDS011;19640;50.944;5.260;2023-11-21T07:01:19;179.40;;;22.27;;
33268;SDS011;19640;50.944;5.260;2023-11-21T07:03:45;175.80;;;21.58;;
33268;SDS011;19640;50.944;5.260;2023-11-21T07:06:10;198.13;;;21.20;;
33268;SDS011;19640;50.944;5.260;2023-11-21T07:08:36;195.15;;;21.50;;
33268;SDS011;19640;50.944;5.260;2023-11-21T07:11:03;93.55;;;20.83;;
33268;SDS011;19640;50.944;5.260;2023-11-21T07:13:29;133.23;;;21.23;;
33268;SDS011;19640;50.944;5.260;2023-11-21T07:15:56;146.82;;;22.40;;
33268;SDS011;19640;50.944;5.260;2023-11-21T07:18:23;137.70;;;22.23;;
33268;SDS011;19640;50.944;5.260;2023-11-21T07:20:48;165.98;;;22.90;;
33268;SDS011;19640;50.944;5.260;2023-11-21T07:23:14;72.38;;;22.50;;
33268;SDS011;19640;50.944;5.260;2023-11-21T07:25:40;80.60;;;22.35;;
33268;SDS011;19640;50.944;5.260;2023-11-21T07:28:08;82.85;;;22.05;;
33268;SDS011;19640;50.944;5.260;2023-11-21T07:30:34;88.30;;;19.90;;
33268;SDS011;19640;50.944;5.260;2023-11-21T07:33:00;77.78;;;21.08;;
33268;SDS011;19640;50.944;5.260;2023-11-21T07:35:25;65.32;;;21.17;;
33268;SDS011;19640;50.944;5.260;2023-11-21T07:37:51;65.68;;;20.33;;
33268;SDS011;19640;50.944;5.260;2023-11-21T07:40:17;59.53;;;20.58;;
33268;SDS011;19640;50.944;5.260;2023-11-21T07:42:43;61.63;;;20.38;;
33268;SDS011;19640;50.944;5.260;2023-11-21T07:45:09;47.72;;;17.25;;
33268;SDS011;19640;50.944;5.260;2023-11-21T07:47:35;54.55;;;18.33;;
33268;SDS011;19640;50.944;5.260;2023-11-21T07:50:02;55.72;;;18.13;;
33268;SDS011;19640;50.944;5.260;2023-11-21T07:52:28;54.78;;;19.85;;
33268;SDS011;19640;50.944;5.260;2023-11-21T07:54:54;50.63;;;17.95;;
33268;SDS011;19640;50.944;5.260;2023-11-21T07:57:20;57.17;;;17.20;;
33268;SDS011;19640;50.944;5.260;2023-11-21T07:59:45;51.15;;;18.52;;
33268;SDS011;19640;50.944;5.260;2023-11-21T08:02:11;54.75;;;19.02;;
33268;SDS011;19640;50.944;5.260;2023-11-21T08:04:37;53.75;;;18.40;;
33268;SDS011;19640;50.944;5.260;2023-11-21T08:07:02;41.80;;;17.27;;
33268;SDS011;19640;50.944;5.260;2023-11-21T08:09:28;50.47;;;18.30;;
33268;SDS011;19640;50.944;5.260;2023-11-21T08:11:55;51.80;;;18.00;;
33268;SDS011;19640;50.944;5.260;2023-11-21T08:14:21;57.60;;;19.27;;
33268;SDS011;19640;50.944;5.260;2023-11-21T08:16:50;52.65;;;18.38;;
33268;SDS011;19640;50.944;5.260;2023-11-21T08:19:16;63.28;;;19.67;;
33268;SDS011;19640;50.944;5.260;2023-11-21T08:21:44;62.90;;;19.92;;
33268;SDS011;19640;50.944;5.260;2023-11-21T08:24:10;55.72;;;18.90;;
33268;SDS011;19640;50.944;5.260;2023-11-21T08:26:36;57.15;;;18.08;;
33268;SDS011;19640;50.944;5.260;2023-11-21T08:29:03;49.55;;;18.23;;
33268;SDS011;19640;50.944;5.260;2023-11-21T08:31:28;56.85;;;19.17;;
33268;SDS011;19640;50.944;5.260;2023-11-21T08:33:54;58.78;;;19.48;;
33268;SDS011;19640;50.944;5.260;2023-11-21T08:36:21;56.75;;;19.23;;
33268;SDS011;19640;50.944;5.260;2023-11-21T08:38:49;59.97;;;19.73;;
33268;SDS011;19640;50.944;5.260;2023-11-21T08:41:17;56.05;;;19.52;;
33268;SDS011;19640;50.944;5.260;2023-11-21T08:43:47;58.28;;;19.15;;
33268;SDS011;19640;50.944;5.260;2023-11-21T08:46:13;58.85;;;17.50;;
33268;SDS011;19640;50.944;5.260;2023-11-21T08:48:40;59.15;;;18.52;;
33268;SDS011;19640;50.944;5.260;2023-11-21T08:51:06;53.53;;;19.67;;
33268;SDS011;19640;50.944;5.260;2023-11-21T08:53:35;50.58;;;17.85;;
33268;SDS011;19640;50.944;5.260;2023-11-21T08:56:00;54.13;;;18.45;;
33268;SDS011;19640;50.944;5.260;2023-11-21T08:58:26;45.35;;;17.85;;
33268;SDS011;19640;50.944;5.260;2023-11-21T09:00:52;53.95;;;18.98;;
33268;SDS011;19640;50.944;5.260;2023-11-21T09:03:18;47.40;;;17.08;;
33268;SDS011;19640;50.944;5.260;2023-11-21T09:05:44;50.72;;;17.60;;
33268;SDS011;19640;50.944;5.260;2023-11-21T09:08:09;41.97;;;17.17;;
33268;SDS011;19640;50.944;5.260;2023-11-21T09:10:35;41.60;;;16.50;;
33268;SDS011;19640;50.944;5.260;2023-11-21T09:13:02;35.72;;;15.70;;
33268;SDS011;19640;50.944;5.260;2023-11-21T09:15:27;35.45;;;15.00;;
33268;SDS011;19640;50.944;5.260;2023-11-21T09:17:53;34.60;;;14.45;;
33268;SDS011;19640;50.944;5.260;2023-11-21T09:20:19;38.03;;;15.25;;
33268;SDS011;19640;50.944;5.260;2023-11-21T09:22:48;36.95;;;15.50;;
33268;SDS011;19640;50.944;5.260;2023-11-21T09:25:14;36.30;;;15.85;;
33268;SDS011;19640;50.944;5.260;2023-11-21T09:27:39;38.70;;;15.77;;
33268;SDS011;19640;50.944;5.260;2023-11-21T09:30:06;31.98;;;14.57;;
33268;SDS011;19640;50.944;5.260;2023-11-21T09:32:35;37.40;;;15.85;;
33268;SDS011;19640;50.944;5.260;2023-11-21T09:35:03;39.53;;;15.20;;
33268;SDS011;19640;50.944;5.260;2023-11-21T09:37:30;41.55;;;16.83;;
33268;SDS011;19640;50.944;5.260;2023-11-21T09:39:55;35.42;;;16.77;;
33268;SDS011;19640;50.944;5.260;2023-11-21T09:42:38;38.08;;;16.15;;
33268;SDS011;19640;50.944;5.260;2023-11-21T09:45:27;40.90;;;15.98;;
33268;SDS011;19640;50.944;5.260;2023-11-21T09:47:54;37.28;;;15.50;;
33268;SDS011;19640;50.944;5.260;2023-11-21T09:50:20;35.03;;;17.73;;
33268;SDS011;19640;50.944;5.260;2023-11-21T09:57:47;40.15;;;17.05;;
33268;SDS011;19640;50.944;5.260;2023-11-21T10:00:15;48.15;;;17.83;;
33268;SDS011;19640;50.944;5.260;2023-11-21T10:02:43;52.42;;;18.08;;
33268;SDS011;19640;50.944;5.260;2023-11-21T10:05:09;37.92;;;16.95;;
33268;SDS011;19640;50.944;5.260;2023-11-21T10:07:36;41.75;;;17.90;;
33268;SDS011;19640;50.944;5.260;2023-11-21T10:10:05;42.45;;;17.52;;
33268;SDS011;19640;50.944;5.260;2023-11-21T10:12:33;44.35;;;17.35;;
33268;SDS011;19640;50.944;5.260;2023-11-21T10:15:00;40.13;;;17.42;;
33268;SDS011;19640;50.944;5.260;2023-11-21T10:17:28;35.30;;;16.25;;
33268;SDS011;19640;50.944;5.260;2023-11-21T10:19:56;42.20;;;16.80;;
33268;SDS011;19640;50.944;5.260;2023-11-21T10:22:22;42.42;;;17.95;;
33268;SDS011;19640;50.944;5.260;2023-11-21T10:24:49;39.78;;;17.08;;
33268;SDS011;19640;50.944;5.260;2023-11-21T10:27:14;40.38;;;16.83;;
33268;SDS011;19640;50.944;5.260;2023-11-21T10:29:40;35.30;;;16.23;;
33268;SDS011;19640;50.944;5.260;2023-11-21T10:32:07;44.13;;;16.52;;
33268;SDS011;19640;50.944;5.260;2023-11-21T10:34:32;40.40;;;16.52;;
33268;SDS011;19640;50.944;5.260;2023-11-21T10:36:59;43.00;;;15.85;;
33268;SDS011;19640;50.944;5.260;2023-11-21T10:39:36;42.72;;;16.75;;
33268;SDS011;19640;50.944;5.260;2023-11-21T10:42:03;44.13;;;17.40;;
33268;SDS011;19640;50.944;5.260;2023-11-21T10:44:29;49.15;;;17.58;;
33268;SDS011;19640;50.944;5.260;2023-11-21T10:46:55;41.22;;;17.40;;
33268;SDS011;19640;50.944;5.260;2023-11-21T10:49:22;43.92;;;17.63;;
33268;SDS011;19640;50.944;5.260;2023-11-21T10:51:50;40.33;;;17.23;;
33268;SDS011;19640;50.944;5.260;2023-11-21T10:54:21;38.53;;;16.20;;
33268;SDS011;19640;50.944;5.260;2023-11-21T10:56:50;38.00;;;16.77;;
33268;SDS011;19640;50.944;5.260;2023-11-21T10:59:22;42.83;;;17.38;;
33268;SDS011;19640;50.944;5.260;2023-11-21T11:01:50;50.42;;;17.08;;
33268;SDS011;19640;50.944;5.260;2023-11-21T11:04:18;39.67;;;16.63;;
33268;SDS011;19640;50.944;5.260;2023-11-21T11:06:44;41.35;;;17.15;;
33268;SDS011;19640;50.944;5.260;2023-11-21T11:11:42;44.53;;;15.40;;
33268;SDS011;19640;50.944;5.260;2023-11-21T11:14:12;35.72;;;15.75;;
33268;SDS011;19640;50.944;5.260;2023-11-21T11:16:39;42.65;;;16.77;;
33268;SDS011;19640;50.944;5.260;2023-11-21T11:19:06;47.15;;;17.23;;
33268;SDS011;19640;50.944;5.260;2023-11-21T11:24:28;41.33;;;16.85;;
33268;SDS011;19640;50.944;5.260;2023-11-21T11:32:21;53.05;;;18.17;;
33268;SDS011;19640;50.944;5.260;2023-11-21T11:35:04;47.85;;;17.17;;
33268;SDS011;19640;50.944;5.260;2023-11-21T11:37:35;51.95;;;19.30;;
33268;SDS011;19640;50.944;5.260;2023-11-21T11:40:05;59.67;;;20.02;;
33268;SDS011;19640;50.944;5.260;2023-11-21T11:42:32;58.08;;;19.98;;
33268;SDS011;19640;50.944;5.260;2023-11-21T11:44:57;63.92;;;20.85;;
33268;SDS011;19640;50.944;5.260;2023-11-21T11:47:24;59.08;;;19.75;;
33268;SDS011;19640;50.944;5.260;2023-11-21T11:50:00;62.13;;;20.55;;
33268;SDS011;19640;50.944;5.260;2023-11-21T11:52:39;65.65;;;20.02;;
33268;SDS011;19640;50.944;5.260;2023-11-21T11:55:07;62.27;;;20.07;;
33268;SDS011;19640;50.944;5.260;2023-11-21T11:57:38;60.03;;;21.55;;
33268;SDS011;19640;50.944;5.260;2023-11-21T12:02:41;67.03;;;21.15;;
33268;SDS011;19640;50.944;5.260;2023-11-21T12:05:11;68.10;;;21.13;;
33268;SDS011;19640;50.944;5.260;2023-11-21T12:07:59;55.97;;;20.25;;
33268;SDS011;19640;50.944;5.260;2023-11-21T12:10:28;57.63;;;19.23;;
33268;SDS011;19640;50.944;5.260;2023-11-21T12:12:59;53.97;;;19.35;;
33268;SDS011;19640;50.944;5.260;2023-11-21T12:15:27;48.88;;;16.75;;
33268;SDS011;19640;50.944;5.260;2023-11-21T12:17:56;49.88;;;18.10;;
33268;SDS011;19640;50.944;5.260;2023-11-21T12:20:24;53.15;;;19.50;;
33268;SDS011;19640;50.944;5.260;2023-11-21T12:25:18;53.38;;;18.80;;
33268;SDS011;19640;50.944;5.260;2023-11-21T12:27:50;56.67;;;19.42;;
33268;SDS011;19640;50.944;5.260;2023-11-21T12:30:20;55.47;;;20.40;;
33268;SDS011;19640;50.944;5.260;2023-11-21T12:32:51;52.95;;;20.17;;
33268;SDS011;19640;50.944;5.260;2023-11-21T12:35:18;57.28;;;20.48;;
33268;SDS011;19640;50.944;5.260;2023-11-21T12:37:46;71.43;;;22.63;;
33268;SDS011;19640;50.944;5.260;2023-11-21T12:40:13;70.15;;;22.55;;
33268;SDS011;19640;50.944;5.260;2023-11-21T12:42:43;57.75;;;21.67;;
33268;SDS011;19640;50.944;5.260;2023-11-21T12:47:52;64.07;;;20.85;;
33268;SDS011;19640;50.944;5.260;2023-11-21T12:50:26;61.70;;;22.90;;
33268;SDS011;19640;50.944;5.260;2023-11-21T12:55:29;65.53;;;23.60;;
33268;SDS011;19640;50.944;5.260;2023-11-21T12:57:56;65.05;;;24.52;;
33268;SDS011;19640;50.944;5.260;2023-11-21T13:00:33;55.38;;;22.27;;
33268;SDS011;19640;50.944;5.260;2023-11-21T13:03:02;52.97;;;20.35;;
33268;SDS011;19640;50.944;5.260;2023-11-21T13:05:32;50.60;;;20.75;;
33268;SDS011;19640;50.944;5.260;2023-11-21T13:08:09;49.45;;;20.33;;
33268;SDS011;19640;50.944;5.260;2023-11-21T13:10:38;51.03;;;20.40;;
33268;SDS011;19640;50.944;5.260;2023-11-21T13:13:07;43.20;;;19.50;;
33268;SDS011;19640;50.944;5.260;2023-11-21T13:15:40;40.17;;;18.65;;
33268;SDS011;19640;50.944;5.260;2023-11-21T13:18:13;37.15;;;17.60;;
33268;SDS011;19640;50.944;5.260;2023-11-21T13:20:40;35.60;;;17.67;;
33268;SDS011;19640;50.944;5.260;2023-11-21T13:23:08;42.72;;;18.67;;
33268;SDS011;19640;50.944;5.260;2023-11-21T13:25:37;40.10;;;18.60;;
33268;SDS011;19640;50.944;5.260;2023-11-21T13:28:06;39.25;;;18.33;;
33268;SDS011;19640;50.944;5.260;2023-11-21T13:30:33;38.03;;;18.13;;
33268;SDS011;19640;50.944;5.260;2023-11-21T13:33:02;35.25;;;17.65;;
33268;SDS011;19640;50.944;5.260;2023-11-21T13:35:35;44.97;;;17.58;;
33268;SDS011;19640;50.944;5.260;2023-11-21T13:38:11;39.38;;;18.58;;
33268;SDS011;19640;50.944;5.260;2023-11-21T13:40:39;45.33;;;18.33;;
33268;SDS011;19640;50.944;5.260;2023-11-21T13:43:10;34.95;;;18.08;;
33268;SDS011;19640;50.944;5.260;2023-11-21T13:45:36;35.33;;;18.42;;
33268;SDS011;19640;50.944;5.260;2023-11-21T13:48:04;33.58;;;17.63;;
33268;SDS011;19640;50.944;5.260;2023-11-21T13:50:35;31.10;;;17.02;;
33268;SDS011;19640;50.944;5.260;2023-11-21T13:53:07;34.25;;;17.75;;
33268;SDS011;19640;50.944;5.260;2023-11-21T13:55:47;27.60;;;15.90;;
33268;SDS011;19640;50.944;5.260;2023-11-21T13:58:14;33.65;;;16.13;;
33268;SDS011;19640;50.944;5.260;2023-11-21T14:00:45;35.30;;;17.50;;
33268;SDS011;19640;50.944;5.260;2023-11-21T14:03:12;23.05;;;14.85;;
33268;SDS011;19640;50.944;5.260;2023-11-21T14:05:46;26.92;;;15.93;;
33268;SDS011;19640;50.944;5.260;2023-11-21T14:08:18;26.10;;;15.93;;
33268;SDS011;19640;50.944;5.260;2023-11-21T14:10:46;24.42;;;14.95;;
33268;SDS011;19640;50.944;5.260;2023-11-21T14:13:23;26.88;;;15.60;;
33268;SDS011;19640;50.944;5.260;2023-11-21T14:15:49;28.17;;;15.60;;
33268;SDS011;19640;50.944;5.260;2023-11-21T14:18:17;27.77;;;14.75;;
33268;SDS011;19640;50.944;5.260;2023-11-21T14:20:52;31.52;;;16.67;;
33268;SDS011;19640;50.944;5.260;2023-11-21T14:23:18;23.98;;;14.20;;
33268;SDS011;19640;50.944;5.260;2023-11-21T14:25:43;22.95;;;14.88;;
33268;SDS011;19640;50.944;5.260;2023-11-21T14:28:09;25.92;;;14.27;;
33268;SDS011;19640;50.944;5.260;2023-11-21T14:30:37;28.65;;;14.07;;
33268;SDS011;19640;50.944;5.260;2023-11-21T14:33:04;25.05;;;14.55;;
33268;SDS011;19640;50.944;5.260;2023-11-21T14:35:31;26.65;;;15.27;;
33268;SDS011;19640;50.944;5.260;2023-11-21T14:37:58;23.50;;;14.55;;
33268;SDS011;19640;50.944;5.260;2023-11-21T14:40:24;23.13;;;13.45;;
33268;SDS011;19640;50.944;5.260;2023-11-21T14:42:50;18.20;;;11.65;;
33268;SDS011;19640;50.944;5.260;2023-11-21T14:45:21;18.92;;;11.77;;